createdAt,value
2023-04-22T00:01:04.475Z,44.67
2023-04-22T00:03:32.881Z,45.43
2023-04-22T00:06:00.135Z,45.33
2023-04-22T00:08:27.312Z,43.17
2023-04-22T00:10:54.184Z,44.63
2023-04-22T00:13:21.080Z,44.13
2023-04-22T00:15:47.994Z,44.03
2023-04-22T00:18:14.999Z,44.73
2023-04-22T00:20:43.777Z,44.43
2023-04-22T00:23:12.792Z,43.93
2023-04-22T00:25:40.617Z,45.27
2023-04-22T00:28:07.502Z,45.43
2023-04-22T00:30:35.250Z,44.23
2023-04-22T00:33:02.190Z,43.53
2023-04-22T00:35:29.590Z,44.00
2023-04-22T00:37:56.525Z,43.50
2023-04-22T00:40:23.417Z,43.93
2023-04-22T00:42:50.946Z,45.07
2023-04-22T00:45:19.369Z,47.23
2023-04-22T00:47:46.636Z,43.47
2023-04-22T00:50:13.867Z,44.30
2023-04-22T00:52:40.781Z,42.90
2023-04-22T00:55:08.566Z,43.93
2023-04-22T00:57:36.068Z,44.47
2023-04-22T01:00:04.800Z,44.17
2023-04-22T01:02:32.125Z,45.57
2023-04-22T01:05:00.029Z,44.73
2023-04-22T01:07:27.039Z,43.57
2023-04-22T01:09:53.955Z,45.50
2023-04-22T01:12:20.785Z,43.77
2023-04-22T01:14:47.690Z,43.67
2023-04-22T01:17:16.253Z,44.03
2023-04-22T01:19:44.375Z,42.97
2023-04-22T01:22:13.758Z,44.60
2023-04-22T01:24:40.944Z,42.30
2023-04-22T01:27:08.879Z,44.93
2023-04-22T01:29:38.422Z,42.47
2023-04-22T01:32:06.342Z,41.57
2023-04-22T01:34:33.272Z,43.43
2023-04-22T01:37:00.154Z,43.87
2023-04-22T01:39:27.510Z,42.17
2023-04-22T01:41:55.687Z,41.90
2023-04-22T01:44:22.737Z,38.97
2023-04-22T01:46:50.104Z,39.23
2023-04-22T01:49:16.918Z,36.37
2023-04-22T01:51:43.742Z,36.77
2023-04-22T01:54:10.903Z,37.00
2023-04-22T01:56:38.933Z,37.97
2023-04-22T01:59:06.034Z,37.13
2023-04-22T02:01:35.859Z,38.83
2023-04-22T02:04:02.829Z,36.03
2023-04-22T02:06:29.743Z,35.00
2023-04-22T02:08:56.573Z,36.60
2023-04-22T02:11:23.335Z,37.67
2023-04-22T02:13:50.985Z,40.10
2023-04-22T02:16:17.938Z,37.90
2023-04-22T02:18:44.918Z,36.40
2023-04-22T02:21:11.750Z,40.90
2023-04-22T02:23:41.388Z,40.00
2023-04-22T02:26:08.722Z,39.07
2023-04-22T02:28:35.656Z,39.90
2023-04-22T02:31:02.747Z,40.90
2023-04-22T02:33:29.703Z,41.67
2023-04-22T02:35:56.459Z,40.00
2023-04-22T02:38:23.697Z,41.30
2023-04-22T02:40:50.517Z,39.17
2023-04-22T02:43:17.528Z,39.00
2023-04-22T02:45:44.494Z,39.87
2023-04-22T02:48:11.500Z,39.33
2023-04-22T02:50:38.388Z,39.13
2023-04-22T02:53:05.309Z,41.30
2023-04-22T02:55:32.175Z,41.43
2023-04-22T02:57:59.038Z,41.63
2023-04-22T03:00:26.173Z,41.30
2023-04-22T03:02:53.579Z,43.50
2023-04-22T03:05:25.308Z,40.83
2023-04-22T03:07:52.152Z,41.67
2023-04-22T03:10:19.405Z,41.23
2023-04-22T03:12:46.236Z,39.60
2023-04-22T03:15:13.247Z,39.67
2023-04-22T03:17:39.986Z,41.83
2023-04-22T03:20:11.771Z,41.70
2023-04-22T03:22:38.662Z,43.43
2023-04-22T03:25:07.750Z,40.43
2023-04-22T03:27:34.644Z,43.00
2023-04-22T03:30:01.456Z,41.60
2023-04-22T03:32:28.469Z,40.13
2023-04-22T03:35:13.103Z,41.03
2023-04-22T03:37:40.002Z,40.83
2023-04-22T03:40:09.628Z,42.13
2023-04-22T03:42:37.371Z,42.90
2023-04-22T03:45:05.305Z,41.60
2023-04-22T03:47:36.516Z,43.43
2023-04-22T03:50:13.167Z,41.77
2023-04-22T03:52:40.375Z,43.90
2023-04-22T03:55:07.529Z,44.10
2023-04-22T03:57:35.799Z,44.53
2023-04-22T04:00:02.900Z,45.83
2023-04-22T04:02:30.442Z,42.53
2023-04-22T04:04:59.399Z,43.40
2023-04-22T04:07:26.747Z,43.47
2023-04-22T04:09:53.728Z,41.80
2023-04-22T04:12:20.600Z,41.90
2023-04-22T04:14:47.574Z,41.50
2023-04-22T04:17:18.352Z,41.37
2023-04-22T04:19:45.479Z,43.73
2023-04-22T04:22:12.399Z,42.53
2023-04-22T04:24:49.810Z,41.17
2023-04-22T04:27:23.748Z,41.90
2023-04-22T04:29:53.234Z,41.77
2023-04-22T04:32:34.486Z,44.40
2023-04-22T04:35:05.012Z,43.60
2023-04-22T04:37:32.076Z,44.90
2023-04-22T04:40:04.799Z,42.47
2023-04-22T04:42:43.493Z,44.37
2023-04-22T04:45:17.668Z,43.20
2023-04-22T04:47:46.228Z,43.37
2023-04-22T04:50:22.755Z,42.10
2023-04-22T04:52:51.628Z,44.63
2023-04-22T04:55:24.158Z,44.23
2023-04-22T04:57:51.775Z,44.00
2023-04-22T05:00:19.045Z,42.80
2023-04-22T05:02:46.635Z,43.73
2023-04-22T05:05:13.946Z,43.53
2023-04-22T05:07:43.154Z,45.13
2023-04-22T05:10:11.979Z,43.37
2023-04-22T05:12:39.211Z,41.83
2023-04-22T05:15:09.174Z,43.43
2023-04-22T05:17:37.865Z,43.40
2023-04-22T05:20:05.219Z,43.60
2023-04-22T05:22:32.180Z,44.13
2023-04-22T05:24:59.020Z,42.77
2023-04-22T05:27:25.937Z,45.20
2023-04-22T05:29:53.098Z,45.50
2023-04-22T05:32:25.391Z,46.53
2023-04-22T05:34:53.009Z,46.47
2023-04-22T05:37:19.905Z,47.60
2023-04-22T05:39:47.697Z,47.67
2023-04-22T05:42:15.064Z,47.13
2023-04-22T05:44:42.763Z,48.13
2023-04-22T05:47:09.694Z,46.03
2023-04-22T05:49:36.535Z,47.30
2023-04-22T05:52:03.529Z,46.00
2023-04-22T05:54:40.215Z,43.83
2023-04-22T05:57:08.305Z,45.40
2023-04-22T05:59:35.227Z,46.77
2023-04-22T06:02:02.468Z,46.63
2023-04-22T06:04:30.054Z,47.07
2023-04-22T06:06:57.183Z,46.30
2023-04-22T06:09:24.611Z,46.43
2023-04-22T06:11:51.774Z,46.60
2023-04-22T06:14:19.183Z,46.17
2023-04-22T06:16:47.233Z,46.10
2023-04-22T06:19:14.070Z,46.50
2023-04-22T06:21:42.559Z,46.00
2023-04-22T06:24:10.366Z,48.73
2023-04-22T06:26:38.010Z,49.60
2023-04-22T06:29:05.640Z,51.27
2023-04-22T06:31:34.087Z,51.23
2023-04-22T06:34:00.904Z,50.60
2023-04-22T06:36:30.279Z,52.03
2023-04-22T06:39:01.108Z,53.17
2023-04-22T06:41:46.484Z,56.93
2023-04-22T06:44:29.592Z,58.10
2023-04-22T06:47:25.714Z,56.40
2023-04-22T06:49:59.374Z,56.23
2023-04-22T06:52:35.267Z,55.13
2023-04-22T06:55:03.714Z,56.83
2023-04-22T06:57:31.083Z,54.73
2023-04-22T06:59:58.178Z,53.83
2023-04-22T07:02:27.243Z,57.67
2023-04-22T07:04:54.122Z,59.23
2023-04-22T07:07:21.140Z,61.33
2023-04-22T07:09:48.905Z,58.60
2023-04-22T07:12:15.980Z,60.23
2023-04-22T07:14:44.592Z,58.63
2023-04-22T07:17:11.979Z,58.23
2023-04-22T07:19:39.510Z,56.97
2023-04-22T07:22:06.914Z,57.97
2023-04-22T07:24:33.840Z,58.53
2023-04-22T07:27:02.252Z,58.73
2023-04-22T07:29:29.057Z,59.43
2023-04-22T07:31:55.902Z,60.40
2023-04-22T07:34:22.796Z,68.23
2023-04-22T07:36:53.579Z,68.67
2023-04-22T07:39:20.687Z,64.83
2023-04-22T07:41:47.506Z,65.80
2023-04-22T07:44:18.326Z,64.63
2023-04-22T07:46:45.259Z,61.50
2023-04-22T07:49:14.260Z,60.53
2023-04-22T07:51:41.381Z,58.57
2023-04-22T07:54:08.129Z,50.27
2023-04-22T07:56:35.124Z,50.70
2023-04-22T07:59:02.483Z,52.90
2023-04-22T08:01:29.341Z,52.60
2023-04-22T08:03:57.275Z,56.53
2023-04-22T08:06:24.290Z,51.83
2023-04-22T08:08:51.128Z,33.80
2023-04-22T08:11:18.085Z,32.13
2023-04-22T08:13:44.915Z,33.37
2023-04-22T08:16:11.991Z,41.37
2023-04-22T08:18:38.902Z,30.13
2023-04-22T08:21:05.936Z,32.73
2023-04-22T08:23:32.771Z,30.33
2023-04-22T08:25:59.651Z,29.67
2023-04-22T08:28:26.877Z,29.37
2023-04-22T08:30:53.717Z,30.33
2023-04-22T08:33:20.551Z,36.20
2023-04-22T08:35:47.861Z,46.63
2023-04-22T08:38:14.700Z,44.23
2023-04-22T08:40:42.402Z,44.13
2023-04-22T08:43:09.691Z,34.40
2023-04-22T08:45:39.515Z,30.60
2023-04-22T08:48:09.210Z,30.50
2023-04-22T08:50:39.045Z,32.20
2023-04-22T08:53:05.894Z,28.27
2023-04-22T08:55:33.711Z,28.27
2023-04-22T08:58:06.040Z,32.60
2023-04-22T09:00:34.638Z,28.20
2023-04-22T09:03:03.188Z,27.60
2023-04-22T09:05:34.012Z,26.27
2023-04-22T09:08:02.147Z,24.37
2023-04-22T09:10:31.100Z,28.77
2023-04-22T09:13:00.120Z,31.13
2023-04-22T09:15:27.749Z,25.00
2023-04-22T09:17:54.765Z,23.60
2023-04-22T09:20:27.452Z,23.83
2023-04-22T09:22:55.722Z,23.97
2023-04-22T09:25:28.756Z,22.67
2023-04-22T09:27:57.892Z,23.27
2023-04-22T09:30:29.155Z,24.13
2023-04-22T09:32:57.613Z,23.00
2023-04-22T09:35:34.855Z,21.80
2023-04-22T09:38:06.258Z,22.47
2023-04-22T09:40:34.189Z,25.57
2023-04-22T09:43:03.464Z,26.10
2023-04-22T09:45:34.636Z,25.13
2023-04-22T09:48:17.268Z,23.10
2023-04-22T09:50:49.514Z,25.73
2023-04-22T09:53:19.730Z,24.93
2023-04-22T09:55:51.493Z,23.80
2023-04-22T09:58:20.197Z,25.50
2023-04-22T10:00:50.658Z,27.77
2023-04-22T10:03:18.312Z,26.13
2023-04-22T10:05:46.235Z,25.60
2023-04-22T10:08:14.833Z,25.17
2023-04-22T10:10:42.510Z,25.70
2023-04-22T10:13:09.667Z,25.17
2023-04-22T10:15:48.014Z,26.70
2023-04-22T10:18:20.602Z,27.30
2023-04-22T10:20:47.909Z,27.83
2023-04-22T10:23:18.942Z,23.07
2023-04-22T10:25:52.978Z,24.07
2023-04-22T10:28:21.886Z,23.10
2023-04-22T10:30:49.389Z,23.30
2023-04-22T10:33:27.372Z,24.53
2023-04-22T10:36:20.210Z,25.13
2023-04-22T10:38:55.967Z,25.97
2023-04-22T10:41:24.089Z,26.17
2023-04-22T10:43:59.294Z,27.27
2023-04-22T10:46:32.873Z,27.37
2023-04-22T10:49:06.828Z,24.67
2023-04-22T10:51:41.236Z,25.10
2023-04-22T10:54:31.509Z,25.00
2023-04-22T10:57:12.991Z,26.27
2023-04-22T10:59:48.775Z,26.93
2023-04-22T11:02:18.082Z,28.63
2023-04-22T11:04:45.645Z,27.83
2023-04-22T11:07:18.299Z,26.70
2023-04-22T11:09:47.074Z,26.53
2023-04-22T11:12:38.703Z,28.33
2023-04-22T11:15:05.589Z,28.53
2023-04-22T11:17:32.794Z,29.07
2023-04-22T11:20:00.249Z,28.00
2023-04-22T11:22:27.433Z,27.40
2023-04-22T11:24:58.310Z,27.57
2023-04-22T11:27:30.312Z,29.87
2023-04-22T11:30:15.036Z,29.00
2023-04-22T11:32:46.999Z,27.10
2023-04-22T11:35:26.526Z,28.97
2023-04-22T11:37:59.164Z,27.47
2023-04-22T11:40:35.224Z,26.63
2023-04-22T11:43:06.072Z,26.30
2023-04-22T11:45:35.140Z,29.70
2023-04-22T11:48:02.963Z,35.10
2023-04-22T11:50:32.899Z,36.70
2023-04-22T11:53:02.287Z,34.17
2023-04-22T11:55:32.232Z,32.87
2023-04-22T11:57:59.029Z,36.47
2023-04-22T12:00:37.326Z,41.17
2023-04-22T12:03:08.067Z,50.53
2023-04-22T12:05:46.225Z,56.87
2023-04-22T12:08:18.708Z,64.83
2023-04-22T12:10:48.506Z,62.97
2023-04-22T12:13:25.761Z,62.13
2023-04-22T12:16:00.322Z,64.03
2023-04-22T12:18:34.121Z,62.33
2023-04-22T12:21:04.228Z,55.33
2023-04-22T12:23:40.883Z,51.60
2023-04-22T12:26:08.032Z,53.33
2023-04-22T12:28:34.913Z,56.30
2023-04-22T12:31:01.830Z,54.57
2023-04-22T12:33:28.657Z,49.50
2023-04-22T12:35:56.681Z,44.67
2023-04-22T12:38:23.571Z,50.80
2023-04-22T12:40:51.141Z,45.50
2023-04-22T12:43:18.396Z,50.07
2023-04-22T12:45:45.378Z,56.03
2023-04-22T12:48:12.328Z,59.80
2023-04-22T12:50:39.110Z,67.00
2023-04-22T12:53:05.941Z,67.20
2023-04-22T12:55:33.524Z,68.10
2023-04-22T12:58:00.552Z,63.57
2023-04-22T13:00:27.477Z,66.37
2023-04-22T13:02:54.338Z,68.33
2023-04-22T13:05:21.246Z,65.97
2023-04-22T13:07:59.609Z,66.40
2023-04-22T13:10:33.500Z,67.50
2023-04-22T13:13:13.641Z,62.50
2023-04-22T13:15:44.462Z,63.63
2023-04-22T13:18:11.588Z,60.50
2023-04-22T13:20:38.559Z,62.60
2023-04-22T13:23:05.472Z,59.33
2023-04-22T13:25:32.511Z,58.23
2023-04-22T13:27:59.539Z,59.57
2023-04-22T13:30:26.473Z,55.90
2023-04-22T13:32:53.650Z,56.57
2023-04-22T13:35:20.824Z,58.70
2023-04-22T13:37:47.886Z,57.00
2023-04-22T13:40:15.009Z,59.70
2023-04-22T13:42:42.811Z,60.90
2023-04-22T13:45:10.046Z,58.90
2023-04-22T13:47:36.998Z,60.63
2023-04-22T13:50:05.939Z,59.20
2023-04-22T13:52:33.974Z,59.77
2023-04-22T13:55:02.402Z,58.43
2023-04-22T13:57:29.226Z,58.37
2023-04-22T13:59:56.027Z,56.17
2023-04-22T14:02:22.979Z,54.27
2023-04-22T14:04:49.839Z,55.33
2023-04-22T14:07:16.694Z,53.83
2023-04-22T14:09:43.738Z,54.13
2023-04-22T14:12:11.278Z,55.27
2023-04-22T14:14:38.391Z,55.40
2023-04-22T14:17:05.450Z,57.80
2023-04-22T14:19:32.375Z,58.03
2023-04-22T14:21:59.210Z,56.20
2023-04-22T14:24:26.094Z,55.83
2023-04-22T14:26:53.931Z,56.30
2023-04-22T14:29:21.090Z,59.07
2023-04-22T14:31:49.838Z,58.67
2023-04-22T14:34:17.280Z,57.77
2023-04-22T14:36:44.294Z,55.23
2023-04-22T14:39:12.192Z,56.03
2023-04-22T14:41:39.098Z,61.23
2023-04-22T14:44:06.166Z,58.83
2023-04-22T14:46:33.241Z,61.37
2023-04-22T14:49:00.096Z,62.17
2023-04-22T14:51:28.978Z,59.13
2023-04-22T14:53:56.469Z,58.97
2023-04-22T14:56:24.249Z,58.90
2023-04-22T14:58:51.080Z,58.70
2023-04-22T15:01:18.000Z,59.97
2023-04-22T15:03:45.136Z,54.47
2023-04-22T15:06:12.057Z,56.07
2023-04-22T15:08:39.963Z,54.60
2023-04-22T15:11:06.866Z,55.97
2023-04-22T15:13:33.763Z,54.67
2023-04-22T15:16:00.703Z,51.23
2023-04-22T15:18:28.224Z,54.80
2023-04-22T15:20:55.299Z,56.83
2023-04-22T15:23:22.261Z,57.07
2023-04-22T15:25:49.201Z,56.37
2023-04-22T15:28:16.082Z,56.17
2023-04-22T15:30:43.773Z,54.70
2023-04-22T15:33:10.682Z,55.70
2023-04-22T15:35:37.560Z,56.07
2023-04-22T15:38:06.036Z,59.97
2023-04-22T15:40:32.893Z,65.30
2023-04-22T15:42:59.672Z,64.43
2023-04-22T15:45:26.477Z,61.47
2023-04-22T15:47:53.797Z,62.03
2023-04-22T15:50:23.237Z,57.00
2023-04-22T15:52:50.080Z,58.70
2023-04-22T15:55:17.017Z,59.60
2023-04-22T15:57:43.772Z,63.37
2023-04-22T16:00:13.440Z,65.10
2023-04-22T16:02:42.288Z,66.30
2023-04-22T16:05:10.140Z,64.50
2023-04-22T16:07:37.023Z,61.47
2023-04-22T16:10:04.183Z,59.90
2023-04-22T16:12:32.744Z,62.43
2023-04-22T16:15:01.123Z,60.57
2023-04-22T16:17:28.021Z,61.33
2023-04-22T16:19:55.342Z,62.23
2023-04-22T16:22:22.202Z,63.03
2023-04-22T16:24:49.016Z,64.10
2023-04-22T16:27:17.381Z,67.80
2023-04-22T16:29:44.264Z,64.83
2023-04-22T16:32:11.602Z,62.63
2023-04-22T16:34:38.932Z,62.87
2023-04-22T16:37:06.425Z,61.80
2023-04-22T16:39:33.825Z,64.07
2023-04-22T16:42:02.232Z,64.47
2023-04-22T16:44:29.083Z,63.87
2023-04-22T16:46:55.912Z,63.73
2023-04-22T16:49:22.780Z,65.27
2023-04-22T16:51:49.664Z,57.80
2023-04-22T16:54:16.444Z,63.80
2023-04-22T16:56:43.253Z,60.20
2023-04-22T16:59:10.168Z,62.53
2023-04-22T17:01:37.078Z,59.53
2023-04-22T17:04:04.156Z,63.93
2023-04-22T17:06:31.290Z,61.63
2023-04-22T17:08:59.748Z,63.83
2023-04-22T17:11:26.583Z,60.83
2023-04-22T17:13:53.390Z,61.70
2023-04-22T17:16:20.938Z,61.40
2023-04-22T17:18:48.207Z,63.77
2023-04-22T17:21:16.693Z,63.03
2023-04-22T17:23:43.566Z,53.90
2023-04-22T17:26:10.330Z,55.17
2023-04-22T17:28:37.211Z,60.00
2023-04-22T17:31:04.195Z,59.03
2023-04-22T17:33:31.234Z,61.73
2023-04-22T17:35:58.242Z,62.80
2023-04-22T17:38:25.032Z,73.13
2023-04-22T17:40:51.843Z,64.70
2023-04-22T17:43:18.664Z,59.80
2023-04-22T17:45:45.545Z,53.80
2023-04-22T17:48:12.342Z,55.23
2023-04-22T17:50:39.280Z,56.70
2023-04-22T17:53:06.134Z,60.87
2023-04-22T17:55:35.226Z,58.60
2023-04-22T17:58:03.863Z,61.67
2023-04-22T18:00:32.839Z,61.93
2023-04-22T18:02:59.995Z,56.13
2023-04-22T18:05:29.777Z,55.43
2023-04-22T18:08:02.585Z,57.73
2023-04-22T18:10:30.299Z,59.10
2023-04-22T18:12:57.126Z,57.40
2023-04-22T18:15:23.970Z,66.03
2023-04-22T18:17:51.286Z,71.23
2023-04-22T18:20:19.483Z,66.90
2023-04-22T18:22:48.224Z,65.43
2023-04-22T18:25:15.932Z,60.97
2023-04-22T18:27:42.919Z,67.90
2023-04-22T18:30:10.148Z,65.97
2023-04-22T18:32:37.666Z,62.00
2023-04-22T18:35:05.075Z,61.13
2023-04-22T18:37:34.532Z,59.90
2023-04-22T18:40:02.317Z,70.57
2023-04-22T18:42:29.189Z,63.07
2023-04-22T18:44:56.090Z,62.63
2023-04-22T18:47:23.142Z,44.17
2023-04-22T18:49:50.012Z,65.20
2023-04-22T18:52:17.495Z,72.77
2023-04-22T18:54:44.513Z,62.80
2023-04-22T18:57:11.330Z,66.00
2023-04-22T18:59:38.458Z,66.07
2023-04-22T19:02:06.555Z,77.85
2023-04-22T19:04:33.640Z,70.87
2023-04-22T19:07:00.933Z,74.73
2023-04-22T19:09:27.828Z,71.40
2023-04-22T19:11:55.273Z,70.23
2023-04-22T19:14:22.150Z,80.33
2023-04-22T19:16:49.296Z,68.33
2023-04-22T19:19:16.210Z,82.13
2023-04-22T19:21:43.605Z,75.73
2023-04-22T19:24:10.733Z,72.10
2023-04-22T19:26:37.721Z,71.87
2023-04-22T19:29:04.525Z,72.47
2023-04-22T19:31:31.699Z,73.80
2023-04-22T19:33:59.196Z,77.33
2023-04-22T19:36:25.967Z,73.17
2023-04-22T19:38:52.793Z,72.27
2023-04-22T19:41:19.653Z,75.73
2023-04-22T19:43:46.941Z,70.17
2023-04-22T19:46:13.897Z,69.10
2023-04-22T19:48:40.948Z,79.28
2023-04-22T19:51:07.898Z,79.30
2023-04-22T19:53:35.521Z,76.80
2023-04-22T19:56:03.114Z,77.23
2023-04-22T19:58:31.590Z,79.07
2023-04-22T20:00:58.673Z,92.00
2023-04-22T20:03:26.331Z,74.33
2023-04-22T20:05:54.596Z,75.57
2023-04-22T20:08:25.800Z,97.43
2023-04-22T20:10:53.619Z,112.87
2023-04-22T20:13:21.144Z,98.13
2023-04-22T20:15:48.099Z,89.70
2023-04-22T20:18:15.057Z,82.80
2023-04-22T20:20:44.878Z,76.53
2023-04-22T20:23:14.279Z,74.47
2023-04-22T20:25:47.014Z,72.30
2023-04-22T20:28:14.419Z,70.60
2023-04-22T20:30:41.505Z,71.07
2023-04-22T20:33:10.697Z,70.93
2023-04-22T20:35:38.909Z,71.33
2023-04-22T20:38:06.816Z,71.67
2023-04-22T20:40:34.795Z,73.53
2023-04-22T20:43:02.531Z,72.43
2023-04-22T20:45:29.346Z,68.77
2023-04-22T20:47:58.250Z,71.00
2023-04-22T20:50:25.785Z,68.70
2023-04-22T20:52:53.259Z,72.60
2023-04-22T20:55:20.215Z,75.87
2023-04-22T20:57:46.983Z,76.37
2023-04-22T21:00:14.344Z,78.73
2023-04-22T21:02:42.797Z,80.50
2023-04-22T21:05:11.375Z,77.60
2023-04-22T21:07:43.523Z,70.97
2023-04-22T21:10:10.805Z,75.00
2023-04-22T21:12:38.345Z,73.43
2023-04-22T21:15:06.150Z,74.95
2023-04-22T21:17:35.245Z,78.97
2023-04-22T21:20:04.904Z,86.80
2023-04-22T21:22:32.677Z,76.93
2023-04-22T21:25:00.193Z,78.00
2023-04-22T21:27:27.433Z,83.27
2023-04-22T21:29:54.611Z,78.93
2023-04-22T21:32:21.693Z,76.07
2023-04-22T21:34:48.589Z,76.73
2023-04-22T21:37:15.680Z,74.90
2023-04-22T21:39:42.711Z,79.47
2023-04-22T21:42:09.521Z,79.90
2023-04-22T21:44:37.735Z,79.33
2023-04-22T21:47:06.280Z,81.17
2023-04-22T21:49:33.084Z,83.40
2023-04-22T21:52:00.035Z,83.93
2023-04-22T21:54:27.036Z,82.77
2023-04-22T21:56:53.874Z,80.47
2023-04-22T21:59:20.639Z,81.47
2023-04-22T22:01:47.501Z,83.07
2023-04-22T22:04:15.987Z,91.70
2023-04-22T22:06:45.120Z,81.73
2023-04-22T22:09:12.696Z,91.70
2023-04-22T22:11:39.571Z,90.87
2023-04-22T22:14:06.447Z,81.50
2023-04-22T22:16:33.656Z,87.97
2023-04-22T22:19:02.792Z,82.97
2023-04-22T22:21:31.291Z,95.90
2023-04-22T22:23:58.105Z,85.60
2023-04-22T22:26:25.058Z,88.53
2023-04-22T22:28:51.872Z,91.97
2023-04-22T22:31:18.925Z,88.63
2023-04-22T22:33:45.883Z,95.20
2023-04-22T22:36:12.912Z,92.27
2023-04-22T22:38:39.743Z,90.27
2023-04-22T22:41:06.497Z,93.47
2023-04-22T22:43:33.295Z,90.27
2023-04-22T22:46:00.415Z,85.10
2023-04-22T22:48:27.539Z,89.97
2023-04-22T22:50:54.332Z,83.57
2023-04-22T22:53:21.433Z,93.83
2023-04-22T22:55:48.254Z,89.60
2023-04-22T22:58:15.119Z,91.87
2023-04-22T23:00:42.196Z,88.60
2023-04-22T23:03:09.278Z,91.07
2023-04-22T23:05:36.288Z,98.03
2023-04-22T23:08:03.251Z,94.67
2023-04-22T23:10:30.155Z,101.30
2023-04-22T23:12:56.960Z,104.47
2023-04-22T23:15:23.720Z,103.30
2023-04-22T23:17:51.174Z,89.90
2023-04-22T23:20:18.631Z,92.23
2023-04-22T23:22:47.804Z,93.10
2023-04-22T23:25:15.414Z,90.47
2023-04-22T23:27:42.635Z,100.60
2023-04-22T23:30:09.795Z,93.00
2023-04-22T23:32:40.075Z,100.17
2023-04-22T23:35:08.383Z,101.70
2023-04-22T23:37:37.839Z,93.67
2023-04-22T23:40:06.714Z,96.07
2023-04-22T23:42:33.513Z,93.30
2023-04-22T23:45:00.322Z,101.20
2023-04-22T23:47:27.382Z,103.97
2023-04-22T23:49:54.256Z,102.47
2023-04-22T23:52:21.063Z,102.20
2023-04-22T23:54:48.265Z,104.03
2023-04-22T23:57:16.139Z,113.67
2023-04-22T23:59:43.558Z,109.93
